< < Back
Terminal Aerodrome Forecast


Current Version              Previous Versions:   1  2  3  4  5  6  7  8  9  

Terminal Aerodrome Forecast

914
FTUS42 KMLB 241400 AAB
TAFMCO
TAF AMD
KMCO 241405Z 2414/2512 19010KT P6SM SCT005 SCT010
     FM241700 21012KT P6SM SCT035
     FM250100 19004KT P6SM SCT040 BKN250
     FM250800 17003KT 4SM BR BKN008=



Latest METAR

068
SAUS70 KWBC 241600
MTRMCO
METAR KMCO 241553Z 19011KT 10SM BKN019 28/23 A2998 RMK AO2 SLP152
T02780233


USA.gov is the U.S. government's official web portal to all federal, state and local government web resources and services.